sensor_id;sensor_type;location;lat;lon;timestamp;temperature;humidity
61765;DHT22;50188;48.114;-1.388;2023-07-20T07:19:24;22.90;64.80
61765;DHT22;50188;48.114;-1.388;2023-07-20T07:21:50;23.00;66.30
61765;DHT22;50188;48.114;-1.388;2023-07-20T07:24:16;23.00;66.60
61765;DHT22;50188;48.114;-1.388;2023-07-20T07:26:42;23.00;66.80
61765;DHT22;50188;48.114;-1.388;2023-07-20T07:29:08;23.00;66.90
61765;DHT22;50188;48.114;-1.388;2023-07-20T07:31:34;23.00;66.90
61765;DHT22;50188;48.114;-1.388;2023-07-20T07:34:04;23.00;66.90
61765;DHT22;50188;48.114;-1.388;2023-07-20T07:36:30;23.10;66.90
61765;DHT22;50188;48.114;-1.388;2023-07-20T07:38:56;23.10;66.80
61765;DHT22;50188;48.114;-1.388;2023-07-20T07:41:22;23.10;66.70
61765;DHT22;50188;48.114;-1.388;2023-07-20T07:43:48;23.10;66.60
61765;DHT22;50188;48.114;-1.388;2023-07-20T07:46:14;23.20;66.60
61765;DHT22;50188;48.114;-1.388;2023-07-20T07:48:40;23.20;66.50
61765;DHT22;50188;48.114;-1.388;2023-07-20T07:51:06;23.20;66.30
61765;DHT22;50188;48.114;-1.388;2023-07-20T07:53:32;23.20;66.30
61765;DHT22;50188;48.114;-1.388;2023-07-20T07:55:58;23.30;66.20
61765;DHT22;50188;48.114;-1.388;2023-07-20T07:58:24;23.30;66.10
61765;DHT22;50188;48.114;-1.388;2023-07-20T08:00:49;23.30;66.00
61765;DHT22;50188;48.114;-1.388;2023-07-20T08:03:15;23.30;66.00
61765;DHT22;50188;48.114;-1.388;2023-07-20T08:05:41;23.30;65.90
61765;DHT22;50188;48.114;-1.388;2023-07-20T08:08:06;23.30;65.80
61765;DHT22;50188;48.114;-1.388;2023-07-20T08:10:34;23.40;65.90
61765;DHT22;50188;48.114;-1.388;2023-07-20T08:13:02;23.40;66.00
61765;DHT22;50188;48.114;-1.388;2023-07-20T08:15:27;23.40;65.90
61765;DHT22;50188;48.114;-1.388;2023-07-20T08:17:53;23.40;65.90
61765;DHT22;50188;48.114;-1.388;2023-07-20T08:20:19;23.40;65.90
61765;DHT22;50188;48.114;-1.388;2023-07-20T08:22:44;23.40;65.80
61765;DHT22;50188;48.114;-1.388;2023-07-20T08:25:10;23.40;65.70
61765;DHT22;50188;48.114;-1.388;2023-07-20T08:27:36;23.50;65.70
61765;DHT22;50188;48.114;-1.388;2023-07-20T08:30:03;23.50;65.70
61765;DHT22;50188;48.114;-1.388;2023-07-20T08:32:30;23.50;65.50
61765;DHT22;50188;48.114;-1.388;2023-07-20T08:34:55;23.50;65.50
61765;DHT22;50188;48.114;-1.388;2023-07-20T08:37:22;23.50;65.50
61765;DHT22;50188;48.114;-1.388;2023-07-20T08:39:48;23.50;65.50
61765;DHT22;50188;48.114;-1.388;2023-07-20T08:42:14;23.50;65.50
61765;DHT22;50188;48.114;-1.388;2023-07-20T08:44:41;23.50;65.50
61765;DHT22;50188;48.114;-1.388;2023-07-20T08:47:09;23.50;65.50
61765;DHT22;50188;48.114;-1.388;2023-07-20T08:49:38;23.50;65.50
61765;DHT22;50188;48.114;-1.388;2023-07-20T08:52:05;23.50;65.40
61765;DHT22;50188;48.114;-1.388;2023-07-20T08:54:31;23.50;65.40
61765;DHT22;50188;48.114;-1.388;2023-07-20T08:57:03;23.50;65.40
61765;DHT22;50188;48.114;-1.388;2023-07-20T08:59:30;23.50;65.30
61765;DHT22;50188;48.114;-1.388;2023-07-20T09:01:59;23.50;65.40
61765;DHT22;50188;48.114;-1.388;2023-07-20T09:04:25;23.50;65.30
61765;DHT22;50188;48.114;-1.388;2023-07-20T09:06:51;23.50;65.20
61765;DHT22;50188;48.114;-1.388;2023-07-20T09:09:17;23.50;65.20
61765;DHT22;50188;48.114;-1.388;2023-07-20T09:11:47;23.50;65.20
61765;DHT22;50188;48.114;-1.388;2023-07-20T09:14:12;23.50;65.10
61765;DHT22;50188;48.114;-1.388;2023-07-20T09:16:48;23.50;65.10
61765;DHT22;50188;48.114;-1.388;2023-07-20T09:19:15;23.50;65.00
61765;DHT22;50188;48.114;-1.388;2023-07-20T09:21:50;23.50;65.00
61765;DHT22;50188;48.114;-1.388;2023-07-20T09:24:18;23.50;65.00
61765;DHT22;50188;48.114;-1.388;2023-07-20T09:26:47;23.50;65.00
61765;DHT22;50188;48.114;-1.388;2023-07-20T09:29:19;23.50;65.10
61765;DHT22;50188;48.114;-1.388;2023-07-20T09:32:01;23.50;65.20
61765;DHT22;50188;48.114;-1.388;2023-07-20T09:34:28;23.50;65.10
61765;DHT22;50188;48.114;-1.388;2023-07-20T09:36:55;23.50;65.20
61765;DHT22;50188;48.114;-1.388;2023-07-20T09:39:21;23.50;65.20
61765;DHT22;50188;48.114;-1.388;2023-07-20T09:41:47;23.50;65.10
61765;DHT22;50188;48.114;-1.388;2023-07-20T09:44:14;23.50;65.10
61765;DHT22;50188;48.114;-1.388;2023-07-20T09:46:45;23.50;65.40
61765;DHT22;50188;48.114;-1.388;2023-07-20T09:49:11;23.50;66.00
61765;DHT22;50188;48.114;-1.388;2023-07-20T09:51:37;23.50;66.30
61765;DHT22;50188;48.114;-1.388;2023-07-20T09:54:04;23.60;66.40
61765;DHT22;50188;48.114;-1.388;2023-07-20T09:56:30;23.60;66.40
61765;DHT22;50188;48.114;-1.388;2023-07-20T09:58:56;23.60;66.40
61765;DHT22;50188;48.114;-1.388;2023-07-20T10:01:22;23.60;66.40
61765;DHT22;50188;48.114;-1.388;2023-07-20T10:03:51;23.60;66.30
61765;DHT22;50188;48.114;-1.388;2023-07-20T10:06:23;23.60;66.40
61765;DHT22;50188;48.114;-1.388;2023-07-20T10:08:53;23.60;66.40
61765;DHT22;50188;48.114;-1.388;2023-07-20T10:11:19;23.60;66.40
61765;DHT22;50188;48.114;-1.388;2023-07-20T10:13:49;23.60;66.30
61765;DHT22;50188;48.114;-1.388;2023-07-20T10:16:27;23.60;66.30
61765;DHT22;50188;48.114;-1.388;2023-07-20T10:21:40;23.60;66.20
61765;DHT22;50188;48.114;-1.388;2023-07-20T10:24:08;23.60;66.20
61765;DHT22;50188;48.114;-1.388;2023-07-20T10:26:34;23.60;66.20
61765;DHT22;50188;48.114;-1.388;2023-07-20T10:29:01;23.60;66.10
61765;DHT22;50188;48.114;-1.388;2023-07-20T10:31:28;23.60;66.10
61765;DHT22;50188;48.114;-1.388;2023-07-20T10:33:56;23.60;66.00
61765;DHT22;50188;48.114;-1.388;2023-07-20T10:36:26;23.60;66.00
61765;DHT22;50188;48.114;-1.388;2023-07-20T10:38:54;23.60;65.90
61765;DHT22;50188;48.114;-1.388;2023-07-20T10:41:22;23.60;65.90
61765;DHT22;50188;48.114;-1.388;2023-07-20T10:43:50;23.60;65.80
61765;DHT22;50188;48.114;-1.388;2023-07-20T10:49:06;23.60;65.60
61765;DHT22;50188;48.114;-1.388;2023-07-20T10:51:58;23.60;65.60
61765;DHT22;50188;48.114;-1.388;2023-07-20T10:54:33;23.60;65.60
61765;DHT22;50188;48.114;-1.388;2023-07-20T10:57:22;23.50;65.70
61765;DHT22;50188;48.114;-1.388;2023-07-20T10:59:48;23.50;65.50
61765;DHT22;50188;48.114;-1.388;2023-07-20T11:02:18;23.50;65.60
61765;DHT22;50188;48.114;-1.388;2023-07-20T11:04:47;23.60;65.60
61765;DHT22;50188;48.114;-1.388;2023-07-20T11:07:35;23.60;65.60
61765;DHT22;50188;48.114;-1.388;2023-07-20T11:10:15;23.60;65.40
61765;DHT22;50188;48.114;-1.388;2023-07-20T11:12:41;23.60;65.40
61765;DHT22;50188;48.114;-1.388;2023-07-20T11:15:07;23.50;65.30
61765;DHT22;50188;48.114;-1.388;2023-07-20T11:17:33;23.60;65.30
61765;DHT22;50188;48.114;-1.388;2023-07-20T11:20:00;23.60;65.30
61765;DHT22;50188;48.114;-1.388;2023-07-20T11:22:27;23.60;65.30
61765;DHT22;50188;48.114;-1.388;2023-07-20T11:24:56;23.60;65.20
61765;DHT22;50188;48.114;-1.388;2023-07-20T11:27:22;23.60;65.20
61765;DHT22;50188;48.114;-1.388;2023-07-20T11:29:48;23.60;65.10
61765;DHT22;50188;48.114;-1.388;2023-07-20T11:32:20;23.60;65.10
61765;DHT22;50188;48.114;-1.388;2023-07-20T11:34:47;23.60;65.10
61765;DHT22;50188;48.114;-1.388;2023-07-20T11:37:13;23.60;65.00
61765;DHT22;50188;48.114;-1.388;2023-07-20T11:39:39;23.60;65.00
61765;DHT22;50188;48.114;-1.388;2023-07-20T11:42:05;23.60;65.00
61765;DHT22;50188;48.114;-1.388;2023-07-20T11:44:32;23.60;65.00
61765;DHT22;50188;48.114;-1.388;2023-07-20T11:47:07;23.60;64.90
61765;DHT22;50188;48.114;-1.388;2023-07-20T11:49:40;23.60;64.80
61765;DHT22;50188;48.114;-1.388;2023-07-20T11:52:07;23.60;64.80
61765;DHT22;50188;48.114;-1.388;2023-07-20T11:54:35;23.60;64.80
61765;DHT22;50188;48.114;-1.388;2023-07-20T11:57:01;23.60;64.70
61765;DHT22;50188;48.114;-1.388;2023-07-20T11:59:27;23.60;64.70
61765;DHT22;50188;48.114;-1.388;2023-07-20T12:01:53;23.60;64.70
61765;DHT22;50188;48.114;-1.388;2023-07-20T12:04:18;23.60;64.70
61765;DHT22;50188;48.114;-1.388;2023-07-20T12:06:45;23.60;64.60
61765;DHT22;50188;48.114;-1.388;2023-07-20T12:09:16;23.60;65.10
61765;DHT22;50188;48.114;-1.388;2023-07-20T12:11:44;23.60;65.00
61765;DHT22;50188;48.114;-1.388;2023-07-20T12:14:12;23.60;64.50
61765;DHT22;50188;48.114;-1.388;2023-07-20T12:16:38;23.60;64.50
61765;DHT22;50188;48.114;-1.388;2023-07-20T12:19:12;23.60;64.40
61765;DHT22;50188;48.114;-1.388;2023-07-20T12:21:40;23.60;64.30
61765;DHT22;50188;48.114;-1.388;2023-07-20T12:24:07;23.60;64.40
61765;DHT22;50188;48.114;-1.388;2023-07-20T12:26:34;23.60;64.40
61765;DHT22;50188;48.114;-1.388;2023-07-20T12:29:01;23.60;64.30
61765;DHT22;50188;48.114;-1.388;2023-07-20T12:31:27;23.60;64.30
61765;DHT22;50188;48.114;-1.388;2023-07-20T12:33:54;23.60;64.30
61765;DHT22;50188;48.114;-1.388;2023-07-20T12:36:21;23.60;64.20
61765;DHT22;50188;48.114;-1.388;2023-07-20T12:38:46;23.60;64.20
61765;DHT22;50188;48.114;-1.388;2023-07-20T12:41:12;23.60;64.20
61765;DHT22;50188;48.114;-1.388;2023-07-20T12:43:40;23.60;64.20
61765;DHT22;50188;48.114;-1.388;2023-07-20T12:46:06;23.60;64.10
61765;DHT22;50188;48.114;-1.388;2023-07-20T12:48:32;23.60;64.10
61765;DHT22;50188;48.114;-1.388;2023-07-20T12:50:57;23.60;64.10
61765;DHT22;50188;48.114;-1.388;2023-07-20T12:53:23;23.60;64.20
61765;DHT22;50188;48.114;-1.388;2023-07-20T12:55:49;23.60;64.10
61765;DHT22;50188;48.114;-1.388;2023-07-20T12:58:15;23.60;64.10
61765;DHT22;50188;48.114;-1.388;2023-07-20T13:00:40;23.60;64.30
61765;DHT22;50188;48.114;-1.388;2023-07-20T13:03:07;23.60;64.10
61765;DHT22;50188;48.114;-1.388;2023-07-20T13:05:34;23.60;64.10
61765;DHT22;50188;48.114;-1.388;2023-07-20T13:08:01;23.60;64.10
61765;DHT22;50188;48.114;-1.388;2023-07-20T13:10:27;23.60;64.10
61765;DHT22;50188;48.114;-1.388;2023-07-20T13:12:53;23.60;64.10
61765;DHT22;50188;48.114;-1.388;2023-07-20T13:15:18;24.30;64.40
61765;DHT22;50188;48.114;-1.388;2023-07-20T13:17:44;23.60;64.00
61765;DHT22;50188;48.114;-1.388;2023-07-20T13:20:11;23.60;64.00
61765;DHT22;50188;48.114;-1.388;2023-07-20T13:22:40;23.60;64.00
61765;DHT22;50188;48.114;-1.388;2023-07-20T13:25:07;23.60;64.30
61765;DHT22;50188;48.114;-1.388;2023-07-20T13:27:33;23.60;64.30
61765;DHT22;50188;48.114;-1.388;2023-07-20T13:30:00;23.60;64.00
61765;DHT22;50188;48.114;-1.388;2023-07-20T13:32:27;23.60;63.90
61765;DHT22;50188;48.114;-1.388;2023-07-20T13:34:52;23.60;63.90
61765;DHT22;50188;48.114;-1.388;2023-07-20T13:37:18;23.60;63.90
61765;DHT22;50188;48.114;-1.388;2023-07-20T13:39:44;23.60;63.90
61765;DHT22;50188;48.114;-1.388;2023-07-20T13:42:10;23.50;63.80
61765;DHT22;50188;48.114;-1.388;2023-07-20T13:44:37;23.60;63.90
61765;DHT22;50188;48.114;-1.388;2023-07-20T13:47:03;23.60;63.90
61765;DHT22;50188;48.114;-1.388;2023-07-20T13:49:30;23.60;64.80
61765;DHT22;50188;48.114;-1.388;2023-07-20T13:51:56;23.60;63.80
61765;DHT22;50188;48.114;-1.388;2023-07-20T13:54:23;23.60;63.80
61765;DHT22;50188;48.114;-1.388;2023-07-20T13:56:49;23.60;63.80
61765;DHT22;50188;48.114;-1.388;2023-07-20T13:59:14;23.60;63.80
61765;DHT22;50188;48.114;-1.388;2023-07-20T14:01:40;23.60;63.80
61765;DHT22;50188;48.114;-1.388;2023-07-20T14:04:06;23.60;63.70
61765;DHT22;50188;48.114;-1.388;2023-07-20T14:06:32;23.60;63.80
61765;DHT22;50188;48.114;-1.388;2023-07-20T14:08:58;23.60;63.90
61765;DHT22;50188;48.114;-1.388;2023-07-20T14:11:24;23.60;63.90
61765;DHT22;50188;48.114;-1.388;2023-07-20T14:13:53;23.60;63.90
61765;DHT22;50188;48.114;-1.388;2023-07-20T14:16:22;23.60;64.10
61765;DHT22;50188;48.114;-1.388;2023-07-20T14:18:48;23.60;64.10
61765;DHT22;50188;48.114;-1.388;2023-07-20T14:21:15;23.60;64.40
61765;DHT22;50188;48.114;-1.388;2023-07-20T14:23:40;23.60;64.50
61765;DHT22;50188;48.114;-1.388;2023-07-20T14:26:06;23.60;64.50
61765;DHT22;50188;48.114;-1.388;2023-07-20T14:28:33;23.60;64.60
61765;DHT22;50188;48.114;-1.388;2023-07-20T14:30:58;23.60;64.60
61765;DHT22;50188;48.114;-1.388;2023-07-20T14:33:24;23.60;64.60
61765;DHT22;50188;48.114;-1.388;2023-07-20T14:35:50;23.60;64.60
61765;DHT22;50188;48.114;-1.388;2023-07-20T14:38:15;23.60;64.60
61765;DHT22;50188;48.114;-1.388;2023-07-20T14:40:41;23.60;65.60
61765;DHT22;50188;48.114;-1.388;2023-07-20T14:43:07;23.70;64.70
61765;DHT22;50188;48.114;-1.388;2023-07-20T14:45:33;23.60;65.60
61765;DHT22;50188;48.114;-1.388;2023-07-20T14:47:59;23.70;64.70
61765;DHT22;50188;48.114;-1.388;2023-07-20T14:50:24;23.70;64.70
61765;DHT22;50188;48.114;-1.388;2023-07-20T14:52:50;23.70;64.70
61765;DHT22;50188;48.114;-1.388;2023-07-20T14:55:16;23.70;64.70
61765;DHT22;50188;48.114;-1.388;2023-07-20T14:57:42;23.70;64.70
61765;DHT22;50188;48.114;-1.388;2023-07-20T15:00:08;23.70;64.70
61765;DHT22;50188;48.114;-1.388;2023-07-20T15:02:38;23.70;64.70
61765;DHT22;50188;48.114;-1.388;2023-07-20T15:05:07;23.70;64.60
61765;DHT22;50188;48.114;-1.388;2023-07-20T15:07:33;23.70;64.50
61765;DHT22;50188;48.114;-1.388;2023-07-20T15:10:00;23.70;64.70
61765;DHT22;50188;48.114;-1.388;2023-07-20T15:12:25;23.70;64.70
61765;DHT22;50188;48.114;-1.388;2023-07-20T15:15:06;23.70;64.60
61765;DHT22;50188;48.114;-1.388;2023-07-20T15:17:33;23.70;64.50
61765;DHT22;50188;48.114;-1.388;2023-07-20T15:19:59;23.70;64.50
61765;DHT22;50188;48.114;-1.388;2023-07-20T15:22:25;23.70;64.50
61765;DHT22;50188;48.114;-1.388;2023-07-20T15:24:51;23.70;65.50
61765;DHT22;50188;48.114;-1.388;2023-07-20T15:27:16;23.70;64.50
61765;DHT22;50188;48.114;-1.388;2023-07-20T15:29:42;23.80;64.60
61765;DHT22;50188;48.114;-1.388;2023-07-20T15:32:10;23.80;64.60
61765;DHT22;50188;48.114;-1.388;2023-07-20T15:34:35;23.70;64.40
61765;DHT22;50188;48.114;-1.388;2023-07-20T15:37:01;23.80;64.30
61765;DHT22;50188;48.114;-1.388;2023-07-20T15:39:28;23.70;64.20
61765;DHT22;50188;48.114;-1.388;2023-07-20T15:41:55;23.80;64.20
61765;DHT22;50188;48.114;-1.388;2023-07-20T15:44:20;23.80;64.20
61765;DHT22;50188;48.114;-1.388;2023-07-20T15:46:47;23.80;64.20
61765;DHT22;50188;48.114;-1.388;2023-07-20T15:49:14;23.80;64.20
61765;DHT22;50188;48.114;-1.388;2023-07-20T15:51:39;23.80;64.10
61765;DHT22;50188;48.114;-1.388;2023-07-20T15:54:08;23.80;64.10
61765;DHT22;50188;48.114;-1.388;2023-07-20T15:56:35;23.80;64.00
61765;DHT22;50188;48.114;-1.388;2023-07-20T15:59:00;23.80;64.00
61765;DHT22;50188;48.114;-1.388;2023-07-20T16:01:27;23.80;63.90
61765;DHT22;50188;48.114;-1.388;2023-07-20T16:03:54;23.80;63.80
61765;DHT22;50188;48.114;-1.388;2023-07-20T16:06:20;23.80;63.70
61765;DHT22;50188;48.114;-1.388;2023-07-20T16:08:46;23.80;63.50
61765;DHT22;50188;48.114;-1.388;2023-07-20T16:11:12;23.80;63.40
61765;DHT22;50188;48.114;-1.388;2023-07-20T16:13:38;23.80;63.30
61765;DHT22;50188;48.114;-1.388;2023-07-20T16:16:03;23.80;63.30
61765;DHT22;50188;48.114;-1.388;2023-07-20T16:18:29;23.80;63.30
61765;DHT22;50188;48.114;-1.388;2023-07-20T16:20:56;23.80;63.20
61765;DHT22;50188;48.114;-1.388;2023-07-20T16:23:21;23.80;63.10
61765;DHT22;50188;48.114;-1.388;2023-07-20T16:25:47;23.80;63.00
61765;DHT22;50188;48.114;-1.388;2023-07-20T16:28:13;23.80;63.00
61765;DHT22;50188;48.114;-1.388;2023-07-20T16:30:39;23.80;62.80
61765;DHT22;50188;48.114;-1.388;2023-07-20T16:33:05;23.70;62.80
61765;DHT22;50188;48.114;-1.388;2023-07-20T16:35:36;23.70;62.70
61765;DHT22;50188;48.114;-1.388;2023-07-20T16:38:01;23.70;62.50
61765;DHT22;50188;48.114;-1.388;2023-07-20T16:40:27;23.80;62.50
61765;DHT22;50188;48.114;-1.388;2023-07-20T16:42:53;23.80;62.40
61765;DHT22;50188;48.114;-1.388;2023-07-20T16:45:18;23.70;62.30
61765;DHT22;50188;48.114;-1.388;2023-07-20T16:47:44;23.70;62.20
61765;DHT22;50188;48.114;-1.388;2023-07-20T16:50:10;23.70;62.10
61765;DHT22;50188;48.114;-1.388;2023-07-20T16:52:35;23.70;62.00
61765;DHT22;50188;48.114;-1.388;2023-07-20T16:55:01;23.70;61.90
61765;DHT22;50188;48.114;-1.388;2023-07-20T16:57:27;23.70;61.90
61765;DHT22;50188;48.114;-1.388;2023-07-20T16:59:52;23.70;61.90
61765;DHT22;50188;48.114;-1.388;2023-07-20T17:02:19;23.70;61.80
61765;DHT22;50188;48.114;-1.388;2023-07-20T17:04:48;23.70;61.80
61765;DHT22;50188;48.114;-1.388;2023-07-20T17:07:13;23.70;61.80
61765;DHT22;50188;48.114;-1.388;2023-07-20T17:09:39;23.70;61.80
61765;DHT22;50188;48.114;-1.388;2023-07-20T17:12:06;23.70;61.80
61765;DHT22;50188;48.114;-1.388;2023-07-20T17:14:33;23.60;61.70
61765;DHT22;50188;48.114;-1.388;2023-07-20T17:16:59;23.60;61.70
61765;DHT22;50188;48.114;-1.388;2023-07-20T17:19:25;23.60;61.70
61765;DHT22;50188;48.114;-1.388;2023-07-20T17:21:51;23.60;61.80
61765;DHT22;50188;48.114;-1.388;2023-07-20T17:24:16;23.60;61.90
61765;DHT22;50188;48.114;-1.388;2023-07-20T17:26:43;23.60;61.90
61765;DHT22;50188;48.114;-1.388;2023-07-20T17:29:09;23.60;61.70
61765;DHT22;50188;48.114;-1.388;2023-07-20T17:31:34;23.60;61.70
61765;DHT22;50188;48.114;-1.388;2023-07-20T17:34:01;23.60;61.70
61765;DHT22;50188;48.114;-1.388;2023-07-20T17:36:27;23.60;61.70
61765;DHT22;50188;48.114;-1.388;2023-07-20T17:38:53;23.60;61.70
61765;DHT22;50188;48.114;-1.388;2023-07-20T17:41:19;23.60;61.70
61765;DHT22;50188;48.114;-1.388;2023-07-20T17:43:45;23.60;61.70
61765;DHT22;50188;48.114;-1.388;2023-07-20T17:46:10;23.60;61.70
61765;DHT22;50188;48.114;-1.388;2023-07-20T17:48:36;23.60;61.90
61765;DHT22;50188;48.114;-1.388;2023-07-20T17:53:28;23.60;61.60
61765;DHT22;50188;48.114;-1.388;2023-07-20T17:55:54;23.60;62.60
61765;DHT22;50188;48.114;-1.388;2023-07-20T17:58:22;23.60;62.70
61765;DHT22;50188;48.114;-1.388;2023-07-20T18:00:47;23.60;62.90
61765;DHT22;50188;48.114;-1.388;2023-07-20T18:03:13;23.60;62.00
61765;DHT22;50188;48.114;-1.388;2023-07-20T18:05:39;23.50;62.90
61765;DHT22;50188;48.114;-1.388;2023-07-20T18:08:05;23.60;62.90
61765;DHT22;50188;48.114;-1.388;2023-07-20T18:10:31;23.60;63.10
61765;DHT22;50188;48.114;-1.388;2023-07-20T18:12:56;23.60;63.10
61765;DHT22;50188;48.114;-1.388;2023-07-20T18:15:22;23.60;63.20
61765;DHT22;50188;48.114;-1.388;2023-07-20T18:17:47;23.60;63.30
61765;DHT22;50188;48.114;-1.388;2023-07-20T18:20:13;23.70;63.30
61765;DHT22;50188;48.114;-1.388;2023-07-20T18:22:39;23.70;63.30
61765;DHT22;50188;48.114;-1.388;2023-07-20T18:25:05;23.70;63.30
61765;DHT22;50188;48.114;-1.388;2023-07-20T18:27:31;23.70;63.30
61765;DHT22;50188;48.114;-1.388;2023-07-20T18:29:57;23.70;63.30
61765;DHT22;50188;48.114;-1.388;2023-07-20T18:32:23;23.70;63.30
61765;DHT22;50188;48.114;-1.388;2023-07-20T18:34:49;23.80;63.70
61765;DHT22;50188;48.114;-1.388;2023-07-20T18:37:15;23.80;63.80
61765;DHT22;50188;48.114;-1.388;2023-07-20T18:39:46;23.80;63.90
61765;DHT22;50188;48.114;-1.388;2023-07-20T18:42:12;23.90;64.00
61765;DHT22;50188;48.114;-1.388;2023-07-20T18:44:38;23.90;63.90
61765;DHT22;50188;48.114;-1.388;2023-07-20T18:47:04;23.90;63.90
61765;DHT22;50188;48.114;-1.388;2023-07-20T18:49:30;23.90;63.80
61765;DHT22;50188;48.114;-1.388;2023-07-20T18:51:57;23.90;63.80
61765;DHT22;50188;48.114;-1.388;2023-07-20T18:54:23;23.90;63.80
61765;DHT22;50188;48.114;-1.388;2023-07-20T18:56:48;23.90;63.80
61765;DHT22;50188;48.114;-1.388;2023-07-20T18:59:14;24.00;63.70
61765;DHT22;50188;48.114;-1.388;2023-07-20T19:01:40;24.00;63.70
61765;DHT22;50188;48.114;-1.388;2023-07-20T19:04:06;24.00;63.70
61765;DHT22;50188;48.114;-1.388;2023-07-20T19:06:32;24.00;63.60
61765;DHT22;50188;48.114;-1.388;2023-07-20T19:08:58;24.00;63.60
61765;DHT22;50188;48.114;-1.388;2023-07-20T19:11:23;24.00;63.60
61765;DHT22;50188;48.114;-1.388;2023-07-20T19:13:49;24.00;63.50
61765;DHT22;50188;48.114;-1.388;2023-07-20T19:16:15;24.10;63.60
61765;DHT22;50188;48.114;-1.388;2023-07-20T19:18:40;24.10;63.60
61765;DHT22;50188;48.114;-1.388;2023-07-20T19:21:07;24.10;63.60
61765;DHT22;50188;48.114;-1.388;2023-07-20T19:23:33;24.10;63.70
61765;DHT22;50188;48.114;-1.388;2023-07-20T19:26:04;24.10;63.70
61765;DHT22;50188;48.114;-1.388;2023-07-20T19:28:29;24.10;63.70
61765;DHT22;50188;48.114;-1.388;2023-07-20T19:30:55;24.10;63.50
61765;DHT22;50188;48.114;-1.388;2023-07-20T19:33:21;24.10;63.20
61765;DHT22;50188;48.114;-1.388;2023-07-20T19:35:46;23.70;62.70
61765;DHT22;50188;48.114;-1.388;2023-07-20T19:38:12;24.10;62.90
61765;DHT22;50188;48.114;-1.388;2023-07-20T19:40:38;24.10;62.80
61765;DHT22;50188;48.114;-1.388;2023-07-20T19:43:04;24.10;62.80
61765;DHT22;50188;48.114;-1.388;2023-07-20T19:45:32;24.10;63.00
61765;DHT22;50188;48.114;-1.388;2023-07-20T19:47:57;24.10;63.10
61765;DHT22;50188;48.114;-1.388;2023-07-20T19:50:23;24.10;63.20
61765;DHT22;50188;48.114;-1.388;2023-07-20T19:52:48;24.10;63.20
61765;DHT22;50188;48.114;-1.388;2023-07-20T19:55:15;24.10;63.30
61765;DHT22;50188;48.114;-1.388;2023-07-20T19:57:41;24.10;63.30
61765;DHT22;50188;48.114;-1.388;2023-07-20T20:00:08;24.10;63.30
61765;DHT22;50188;48.114;-1.388;2023-07-20T20:02:37;24.10;63.30
61765;DHT22;50188;48.114;-1.388;2023-07-20T20:05:05;24.20;63.30
61765;DHT22;50188;48.114;-1.388;2023-07-20T20:07:32;24.20;63.30
61765;DHT22;50188;48.114;-1.388;2023-07-20T20:10:00;24.20;63.30
61765;DHT22;50188;48.114;-1.388;2023-07-20T20:12:26;24.20;63.30
61765;DHT22;50188;48.114;-1.388;2023-07-20T20:14:53;24.20;63.40
61765;DHT22;50188;48.114;-1.388;2023-07-20T20:17:19;24.20;63.40
61765;DHT22;50188;48.114;-1.388;2023-07-20T20:19:45;24.20;63.40
61765;DHT22;50188;48.114;-1.388;2023-07-20T20:22:12;24.20;63.40
61765;DHT22;50188;48.114;-1.388;2023-07-20T20:24:38;24.20;63.40
61765;DHT22;50188;48.114;-1.388;2023-07-20T20:27:04;24.30;63.40
61765;DHT22;50188;48.114;-1.388;2023-07-20T20:29:29;24.20;63.30
61765;DHT22;50188;48.114;-1.388;2023-07-20T20:31:55;24.20;63.30
61765;DHT22;50188;48.114;-1.388;2023-07-20T20:34:21;24.30;63.40
61765;DHT22;50188;48.114;-1.388;2023-07-20T20:36:47;24.30;63.40
61765;DHT22;50188;48.114;-1.388;2023-07-20T20:39:12;24.30;63.40
61765;DHT22;50188;48.114;-1.388;2023-07-20T20:41:38;24.30;63.30
61765;DHT22;50188;48.114;-1.388;2023-07-20T20:44:13;24.30;63.30
61765;DHT22;50188;48.114;-1.388;2023-07-20T20:46:43;24.40;63.40
61765;DHT22;50188;48.114;-1.388;2023-07-20T20:49:09;24.30;62.50
61765;DHT22;50188;48.114;-1.388;2023-07-20T20:51:34;24.30;63.30
61765;DHT22;50188;48.114;-1.388;2023-07-20T20:54:00;24.30;62.70
61765;DHT22;50188;48.114;-1.388;2023-07-20T20:56:26;24.30;62.60
61765;DHT22;50188;48.114;-1.388;2023-07-20T20:58:52;24.40;63.50
61765;DHT22;50188;48.114;-1.388;2023-07-20T21:01:18;24.40;62.70
61765;DHT22;50188;48.114;-1.388;2023-07-20T21:03:44;24.40;62.70
61765;DHT22;50188;48.114;-1.388;2023-07-20T21:06:10;24.40;62.60
61765;DHT22;50188;48.114;-1.388;2023-07-20T21:08:35;24.50;62.70
61765;DHT22;50188;48.114;-1.388;2023-07-20T21:13:27;24.50;62.70
61765;DHT22;50188;48.114;-1.388;2023-07-20T21:15:54;24.40;62.50
61765;DHT22;50188;48.114;-1.388;2023-07-20T21:18:20;24.40;62.50
61765;DHT22;50188;48.114;-1.388;2023-07-20T21:20:46;24.40;62.40
61765;DHT22;50188;48.114;-1.388;2023-07-20T21:25:38;24.40;62.20
61765;DHT22;50188;48.114;-1.388;2023-07-20T21:30:30;24.40;62.30
61765;DHT22;50188;48.114;-1.388;2023-07-20T21:32:56;24.40;63.20
61765;DHT22;50188;48.114;-1.388;2023-07-20T21:35:22;24.40;62.50
61765;DHT22;50188;48.114;-1.388;2023-07-20T21:37:49;24.50;62.50
61765;DHT22;50188;48.114;-1.388;2023-07-20T21:40:16;24.40;62.40
61765;DHT22;50188;48.114;-1.388;2023-07-20T21:42:42;24.40;62.40
61765;DHT22;50188;48.114;-1.388;2023-07-20T21:45:08;24.40;62.20
61765;DHT22;50188;48.114;-1.388;2023-07-20T21:47:34;24.50;62.30
61765;DHT22;50188;48.114;-1.388;2023-07-20T21:50:00;24.30;62.30
61765;DHT22;50188;48.114;-1.388;2023-07-20T21:52:25;24.50;62.30
61765;DHT22;50188;48.114;-1.388;2023-07-20T21:54:51;24.40;63.00
61765;DHT22;50188;48.114;-1.388;2023-07-20T21:57:20;24.40;63.10
61765;DHT22;50188;48.114;-1.388;2023-07-20T21:59:46;24.50;63.20
61765;DHT22;50188;48.114;-1.388;2023-07-20T22:02:11;24.50;63.30
61765;DHT22;50188;48.114;-1.388;2023-07-20T22:04:37;24.40;63.20
61765;DHT22;50188;48.114;-1.388;2023-07-20T22:07:03;24.40;63.20
61765;DHT22;50188;48.114;-1.388;2023-07-20T22:12:11;24.50;62.30
61765;DHT22;50188;48.114;-1.388;2023-07-20T22:14:40;24.50;63.20
61765;DHT22;50188;48.114;-1.388;2023-07-20T22:17:07;24.50;62.50
61765;DHT22;50188;48.114;-1.388;2023-07-20T22:19:34;24.40;63.00
61765;DHT22;50188;48.114;-1.388;2023-07-20T22:21:59;24.50;63.10
61765;DHT22;50188;48.114;-1.388;2023-07-20T22:24:34;24.50;63.10
61765;DHT22;50188;48.114;-1.388;2023-07-20T22:27:00;24.50;63.10
61765;DHT22;50188;48.114;-1.388;2023-07-20T22:29:26;24.50;63.00
61765;DHT22;50188;48.114;-1.388;2023-07-20T22:31:57;24.50;63.00
61765;DHT22;50188;48.114;-1.388;2023-07-20T22:34:23;24.50;62.10
61765;DHT22;50188;48.114;-1.388;2023-07-20T22:36:50;24.50;62.90
61765;DHT22;50188;48.114;-1.388;2023-07-20T22:39:15;24.50;63.00
61765;DHT22;50188;48.114;-1.388;2023-07-20T22:41:41;24.50;62.10
61765;DHT22;50188;48.114;-1.388;2023-07-20T22:44:07;24.50;62.50
61765;DHT22;50188;48.114;-1.388;2023-07-20T22:46:32;24.50;62.30
61765;DHT22;50188;48.114;-1.388;2023-07-20T22:48:58;24.50;63.10